Time;durP1;ratioP1;P1;durP2;ratioP2;P2;SDS_P1;SDS_P2;PMS_P1;PMS_P2;Temp;Humidity;BMP_temperature;BMP_pressure;BME280_temperature;BME280_humidity;BME280_pressure;Samples;Min_cycle;Max_cycle;Signal;HPM_P1;HPM_P2
2022/12/29 00:01:35;;;;;;;;;;;;;;;;;;5052517;28;20019;-76
2022/12/29 00:04:01;;;;;;;;;;;;;;;;;;5052379;28;20019;-76
2022/12/29 00:06:28;;;;;;;;;;;;;;;;;;5052961;28;19964;-76
2022/12/29 00:08:54;;;;;;;;;;;;;;;;;;5052889;28;19931;-76
2022/12/29 00:11:22;;;;;;;;;;;;;;;;;;5056182;28;19968;-76
2022/12/29 00:16:33;;;;;;;;;;;;;;;;;;5072997;28;20014;-76
2022/12/29 00:19:01;;;;;;;;;;;;;;;;;;5073208;28;19968;-76
2022/12/29 00:35:14;;;;;;;;;;;;;;;;;;5074563;28;19932;-77
2022/12/29 00:45:56;;;;;;;;;;;;;;;;;;5034576;28;19929;-76
2022/12/29 00:51:05;;;;;;;;;;;;;;;;;;5051168;28;20371;-76
2022/12/29 00:53:31;;;;;;;;;;;;;;;;;;5059310;28;20016;-76
2022/12/29 00:55:57;;;;;;;;;;;;;;;;;;5074920;28;19979;-76
2022/12/29 00:58:24;;;;;;;;;;;;;;;;;;5076002;28;19924;-76
2022/12/29 01:00:50;;;;;;;;;;;;;;;;;;5076076;28;19925;-75
2022/12/29 01:03:17;;;;;;;;;;;;;;;;;;5072006;28;20371;-76
2022/12/29 01:05:43;;;;;;;;;;;;;;;;;;5055249;28;20462;-76
2022/12/29 01:08:11;;;;;;;;;;;;;;;;;;5056346;28;20016;-77
2022/12/29 01:10:37;;;;;;;;;;;;;;;;;;5056136;28;20024;-77
2022/12/29 01:13:03;;;;;;;;;;;;;;;;;;5059255;28;20018;-76
2022/12/29 01:15:30;;;;;;;;;;;;;;;;;;5075090;28;19970;-77
2022/12/29 01:17:56;;;;;;;;;;;;;;;;;;5075092;28;19928;-77
2022/12/29 01:20:23;;;;;;;;;;;;;;;;;;5074760;28;19994;-77
2022/12/29 01:22:49;;;;;;;;;;;;;;;;;;5072442;28;19970;-76
2022/12/29 01:25:17;;;;;;;;;;;;;;;;;;5073461;28;19956;-76
2022/12/29 01:27:43;;;;;;;;;;;;;;;;;;5074759;28;20019;-76
2022/12/29 01:30:10;;;;;;;;;;;;;;;;;;5075081;28;20069;-77
2022/12/29 01:32:37;;;;;;;;;;;;;;;;;;5060805;28;19976;-77
2022/12/29 01:35:03;;;;;;;;;;;;;;;;;;5062393;28;20303;-77
2022/12/29 01:37:30;;;;;;;;;;;;;;;;;;5054774;28;19925;-77
2022/12/29 01:39:56;;;;;;;;;;;;;;;;;;5054702;28;20314;-77
2022/12/29 01:42:25;;;;;;;;;;;;;;;;;;5066531;28;20355;-75
2022/12/29 01:44:53;;;;;;;;;;;;;;;;;;5066151;28;19932;-76
2022/12/29 01:47:23;;;;;;;;;;;;;;;;;;5074415;28;20408;-77
2022/12/29 01:49:50;;;;;;;;;;;;;;;;;;5055181;28;20457;-77
2022/12/29 01:52:16;;;;;;;;;;;;;;;;;;5054652;28;19980;-76
2022/12/29 01:54:44;;;;;;;;;;;;;;;;;;5057583;28;19971;-77
2022/12/29 01:57:12;;;;;;;;;;;;;;;;;;5058580;28;19925;-76
2022/12/29 01:59:41;;;;;;;;;;;;;;;;;;5054486;28;19946;-76
2022/12/29 02:02:08;;;;;;;;;;;;;;;;;;5054684;28;19924;-76
2022/12/29 02:04:35;;;;;;;;;;;;;;;;;;5053873;28;19924;-77
2022/12/29 02:07:03;;;;;;;;;;;;;;;;;;5068661;28;20023;-77
2022/12/29 02:09:30;;;;;;;;;;;;;;;;;;5074208;28;20390;-76
2022/12/29 02:11:57;;;;;;;;;;;;;;;;;;5067930;28;19924;-77
2022/12/29 02:14:24;;;;;;;;;;;;;;;;;;5053869;28;19924;-76
2022/12/29 02:16:57;;;;;;;;;;;;;;;;;;5062051;28;20003;-77
2022/12/29 02:19:34;;;;;;;;;;;;;;;;;;5053660;28;19975;-76
2022/12/29 02:22:04;;;;;;;;;;;;;;;;;;5054036;28;20019;-77
2022/12/29 02:25:04;;;;;;;;;;;;;;;;;;5054596;28;20024;-77
2022/12/29 02:27:38;;;;;;;;;;;;;;;;;;5061284;28;19928;-77
2022/12/29 02:30:09;;;;;;;;;;;;;;;;;;5053551;28;19967;-76
2022/12/29 02:32:43;;;;;;;;;;;;;;;;;;5053100;28;20353;-77
2022/12/29 02:35:13;;;;;;;;;;;;;;;;;;5053763;28;19929;-77
2022/12/29 02:37:43;;;;;;;;;;;;;;;;;;5061462;28;20032;-76
2022/12/29 02:40:16;;;;;;;;;;;;;;;;;;5053582;28;19979;-76
2022/12/29 02:42:47;;;;;;;;;;;;;;;;;;5065332;28;19979;-76
2022/12/29 02:45:16;;;;;;;;;;;;;;;;;;5073632;28;19978;-77
2022/12/29 02:47:48;;;;;;;;;;;;;;;;;;5065046;28;19964;-76
2022/12/29 02:50:16;;;;;;;;;;;;;;;;;;5073358;28;19963;-77
2022/12/29 02:52:47;;;;;;;;;;;;;;;;;;5072952;28;20011;-77
2022/12/29 02:55:12;;;;;;;;;;;;;;;;;;5073450;28;19959;-77
2022/12/29 02:57:39;;;;;;;;;;;;;;;;;;5066835;28;20340;-77
2022/12/29 03:00:07;;;;;;;;;;;;;;;;;;5053198;28;20007;-76
2022/12/29 03:02:45;;;;;;;;;;;;;;;;;;5052814;28;19932;-76
2022/12/29 03:05:17;;;;;;;;;;;;;;;;;;5053035;28;20016;-76
2022/12/29 03:07:48;;;;;;;;;;;;;;;;;;5056371;28;20019;-76
2022/12/29 03:10:18;;;;;;;;;;;;;;;;;;5074802;28;20027;-76
2022/12/29 03:18:22;;;;;;;;;;;;;;;;;;5067138;28;19932;-77
2022/12/29 03:20:52;;;;;;;;;;;;;;;;;;5052972;28;20490;-76
2022/12/29 03:23:18;;;;;;;;;;;;;;;;;;5052919;28;19975;-76
2022/12/29 03:25:47;;;;;;;;;;;;;;;;;;5052967;28;19924;-76
2022/12/29 03:28:18;;;;;;;;;;;;;;;;;;5053103;28;20007;-76
2022/12/29 03:30:45;;;;;;;;;;;;;;;;;;5060024;28;19932;-77
2022/12/29 03:33:14;;;;;;;;;;;;;;;;;;5052834;28;19925;-77
2022/12/29 03:35:42;;;;;;;;;;;;;;;;;;5054227;28;20011;-75
2022/12/29 03:38:11;;;;;;;;;;;;;;;;;;5052968;28;19925;-76
2022/12/29 03:40:39;;;;;;;;;;;;;;;;;;5053442;28;20287;-77
2022/12/29 03:43:06;;;;;;;;;;;;;;;;;;5067600;28;20027;-77
2022/12/29 03:45:32;;;;;;;;;;;;;;;;;;5072682;28;19924;-77
2022/12/29 03:47:59;;;;;;;;;;;;;;;;;;5072356;28;20007;-76
2022/12/29 03:50:25;;;;;;;;;;;;;;;;;;5063996;28;19928;-77
2022/12/29 03:52:51;;;;;;;;;;;;;;;;;;5072079;28;20019;-77
2022/12/29 03:55:19;;;;;;;;;;;;;;;;;;5072433;28;19928;-77
2022/12/29 03:57:46;;;;;;;;;;;;;;;;;;5072289;28;19978;-76
2022/12/29 04:00:13;;;;;;;;;;;;;;;;;;5069105;28;19958;-76
2022/12/29 04:02:39;;;;;;;;;;;;;;;;;;5053372;28;20409;-76
2022/12/29 04:05:06;;;;;;;;;;;;;;;;;;5052047;28;19968;-76
2022/12/29 04:07:33;;;;;;;;;;;;;;;;;;5052916;28;19976;-77
2022/12/29 04:09:59;;;;;;;;;;;;;;;;;;5053845;28;20019;-77
2022/12/29 04:12:27;;;;;;;;;;;;;;;;;;5053576;28;20415;-76
2022/12/29 04:14:53;;;;;;;;;;;;;;;;;;5052261;28;19925;-76
2022/12/29 04:17:20;;;;;;;;;;;;;;;;;;5052049;28;19925;-76
2022/12/29 04:19:46;;;;;;;;;;;;;;;;;;5052109;28;19925;-77
2022/12/29 04:22:13;;;;;;;;;;;;;;;;;;5060641;28;19967;-76
2022/12/29 04:24:39;;;;;;;;;;;;;;;;;;5075175;28;19948;-77
2022/12/29 04:27:06;;;;;;;;;;;;;;;;;;5072524;28;20437;-77
2022/12/29 04:29:33;;;;;;;;;;;;;;;;;;5073104;28;20015;-76
2022/12/29 04:32:00;;;;;;;;;;;;;;;;;;5068239;28;19971;-77
2022/12/29 04:34:26;;;;;;;;;;;;;;;;;;5077507;28;19967;-77
2022/12/29 04:36:53;;;;;;;;;;;;;;;;;;5077016;28;19967;-77
2022/12/29 04:39:19;;;;;;;;;;;;;;;;;;5077203;28;19968;-77
2022/12/29 04:41:46;;;;;;;;;;;;;;;;;;5071542;28;19948;-76
2022/12/29 04:44:12;;;;;;;;;;;;;;;;;;5072558;28;19925;-76
2022/12/29 04:46:40;;;;;;;;;;;;;;;;;;5076520;28;19997;-76
2022/12/29 04:49:08;;;;;;;;;;;;;;;;;;5075816;28;19924;-76
2022/12/29 04:51:35;;;;;;;;;;;;;;;;;;5075364;28;20314;-76
2022/12/29 04:54:01;;;;;;;;;;;;;;;;;;5067252;28;19925;-76
2022/12/29 04:56:28;;;;;;;;;;;;;;;;;;5075736;28;20019;-77
2022/12/29 04:58:54;;;;;;;;;;;;;;;;;;5075329;28;19974;-77
2022/12/29 05:01:21;;;;;;;;;;;;;;;;;;5075334;28;19931;-77
2022/12/29 05:03:50;;;;;;;;;;;;;;;;;;5066670;28;19924;-77
2022/12/29 05:06:16;;;;;;;;;;;;;;;;;;5055317;28;19924;-77
2022/12/29 05:08:43;;;;;;;;;;;;;;;;;;5055287;28;20423;-77
2022/12/29 05:11:09;;;;;;;;;;;;;;;;;;5056510;28;19995;-77
2022/12/29 05:13:36;;;;;;;;;;;;;;;;;;5063520;28;19975;-77
2022/12/29 05:16:02;;;;;;;;;;;;;;;;;;5077095;28;20003;-77
2022/12/29 05:18:29;;;;;;;;;;;;;;;;;;5075927;28;19928;-76
2022/12/29 05:20:56;;;;;;;;;;;;;;;;;;5074896;28;19982;-77
2022/12/29 05:23:23;;;;;;;;;;;;;;;;;;5071852;28;19964;-77
2022/12/29 05:25:49;;;;;;;;;;;;;;;;;;5055431;28;19925;-77
2022/12/29 05:28:16;;;;;;;;;;;;;;;;;;5055430;28;19964;-77
2022/12/29 05:30:42;;;;;;;;;;;;;;;;;;5055814;28;19975;-77
2022/12/29 05:33:11;;;;;;;;;;;;;;;;;;5071819;28;20023;-76
2022/12/29 05:35:38;;;;;;;;;;;;;;;;;;5066651;28;20054;-76
2022/12/29 05:38:05;;;;;;;;;;;;;;;;;;5075692;28;20010;-76
2022/12/29 05:40:32;;;;;;;;;;;;;;;;;;5075377;28;19924;-76
2022/12/29 05:42:58;;;;;;;;;;;;;;;;;;5074143;28;19982;-76
2022/12/29 05:45:25;;;;;;;;;;;;;;;;;;5062036;28;19931;-76
2022/12/29 05:47:51;;;;;;;;;;;;;;;;;;5055676;28;19967;-76
2022/12/29 05:50:18;;;;;;;;;;;;;;;;;;5055953;28;20003;-75
2022/12/29 05:52:44;;;;;;;;;;;;;;;;;;5054855;28;20039;-76
2022/12/29 05:55:12;;;;;;;;;;;;;;;;;;5055586;28;19964;-76
2022/12/29 05:57:39;;;;;;;;;;;;;;;;;;5035144;28;20130;-76
2022/12/29 06:00:06;;;;;;;;;;;;;;;;;;5035401;28;19968;-77
2022/12/29 06:02:32;;;;;;;;;;;;;;;;;;5036697;28;19985;-76
2022/12/29 06:04:59;;;;;;;;;;;;;;;;;;5042117;28;19971;-76
2022/12/29 06:07:25;;;;;;;;;;;;;;;;;;5041444;28;20020;-77
2022/12/29 06:09:51;;;;;;;;;;;;;;;;;;5042771;28;19988;-76
2022/12/29 06:12:19;;;;;;;;;;;;;;;;;;5060482;28;19960;-77
2022/12/29 06:14:46;;;;;;;;;;;;;;;;;;5081935;28;19987;-77
2022/12/29 06:17:12;;;;;;;;;;;;;;;;;;5080022;28;20003;-77
2022/12/29 06:19:38;;;;;;;;;;;;;;;;;;5074427;28;19943;-77
2022/12/29 06:22:07;;;;;;;;;;;;;;;;;;5059944;28;19976;-77
2022/12/29 06:24:33;;;;;;;;;;;;;;;;;;5055137;28;20295;-77
2022/12/29 06:26:59;;;;;;;;;;;;;;;;;;5055309;28;19980;-77
2022/12/29 06:29:28;;;;;;;;;;;;;;;;;;5054130;28;19997;-77
2022/12/29 06:31:57;;;;;;;;;;;;;;;;;;5053871;28;19928;-77
2022/12/29 06:34:24;;;;;;;;;;;;;;;;;;5053776;28;19974;-77
2022/12/29 06:36:50;;;;;;;;;;;;;;;;;;5054540;28;20010;-77
2022/12/29 06:39:17;;;;;;;;;;;;;;;;;;5063778;28;20454;-77
2022/12/29 06:41:43;;;;;;;;;;;;;;;;;;5073663;28;20374;-77
2022/12/29 06:44:10;;;;;;;;;;;;;;;;;;5073545;28;20026;-75
2022/12/29 06:46:37;;;;;;;;;;;;;;;;;;5073902;28;20011;-76
2022/12/29 06:49:04;;;;;;;;;;;;;;;;;;5073690;28;20003;-75
2022/12/29 06:51:30;;;;;;;;;;;;;;;;;;5073835;28;20007;-76
2022/12/29 06:53:57;;;;;;;;;;;;;;;;;;5073045;28;20012;-76
2022/12/29 06:56:23;;;;;;;;;;;;;;;;;;5073508;28;19986;-77
2022/12/29 06:58:50;;;;;;;;;;;;;;;;;;5066223;28;19967;-76
2022/12/29 07:01:16;;;;;;;;;;;;;;;;;;5054713;28;20061;-77
2022/12/29 07:03:44;;;;;;;;;;;;;;;;;;5055801;28;19925;-77
2022/12/29 07:06:11;;;;;;;;;;;;;;;;;;5055777;28;20321;-77
2022/12/29 07:11:05;;;;;;;;;;;;;;;;;;5059950;28;19978;-82
2022/12/29 07:13:31;;;;;;;;;;;;;;;;;;5056402;28;19968;-82
2022/12/29 07:15:57;;;;;;;;;;;;;;;;;;5057143;28;19992;-81
2022/12/29 07:18:24;;;;;;;;;;;;;;;;;;5057791;28;19975;-81
2022/12/29 07:20:52;;;;;;;;;;;;;;;;;;5075202;28;20016;-81
2022/12/29 07:23:18;;;;;;;;;;;;;;;;;;5074060;28;19924;-81
2022/12/29 07:25:45;;;;;;;;;;;;;;;;;;5074498;28;19975;-81
2022/12/29 07:28:11;;;;;;;;;;;;;;;;;;5074464;28;19992;-82
2022/12/29 07:30:38;;;;;;;;;;;;;;;;;;5074815;28;20031;-81
2022/12/29 07:33:04;;;;;;;;;;;;;;;;;;5074642;28;19925;-81
2022/12/29 07:35:31;;;;;;;;;;;;;;;;;;5074119;28;20015;-81
2022/12/29 07:37:59;;;;;;;;;;;;;;;;;;5074707;28;20519;-82
2022/12/29 07:40:25;;;;;;;;;;;;;;;;;;5057373;28;19956;-82
2022/12/29 07:42:52;;;;;;;;;;;;;;;;;;5057246;28;19968;-81
2022/12/29 07:45:18;;;;;;;;;;;;;;;;;;5072782;28;19970;-82
2022/12/29 07:47:47;;;;;;;;;;;;;;;;;;5064465;28;20415;-81
2022/12/29 07:50:14;;;;;;;;;;;;;;;;;;5055090;28;19964;-81
2022/12/29 07:52:40;;;;;;;;;;;;;;;;;;5056028;28;20011;-82
2022/12/29 07:55:09;;;;;;;;;;;;;;;;;;5056664;28;19986;-82
2022/12/29 07:57:36;;;;;;;;;;;;;;;;;;5056596;28;20371;-82
2022/12/29 08:00:03;;;;;;;;;;;;;;;;;;5058737;28;19951;-81
2022/12/29 08:02:30;;;;;;;;;;;;;;;;;;5060249;28;19935;-81
2022/12/29 08:04:56;;;;;;;;;;;;;;;;;;5072222;28;19996;-81
2022/12/29 08:07:23;;;;;;;;;;;;;;;;;;5081154;28;20054;-79
2022/12/29 08:09:49;;;;;;;;;;;;;;;;;;5079654;28;19928;-80
2022/12/29 08:12:17;;;;;;;;;;;;;;;;;;5061107;28;19925;-81
2022/12/29 08:14:43;;;;;;;;;;;;;;;;;;5055300;28;20338;-82
2022/12/29 08:17:10;;;;;;;;;;;;;;;;;;5055672;28;20353;-80
2022/12/29 08:19:37;;;;;;;;;;;;;;;;;;5058875;28;19925;-80
2022/12/29 08:22:03;;;;;;;;;;;;;;;;;;5060551;28;20433;-82
2022/12/29 08:24:30;;;;;;;;;;;;;;;;;;5060593;28;20407;-82
2022/12/29 08:26:56;;;;;;;;;;;;;;;;;;5058987;28;20015;-82
2022/12/29 08:29:24;;;;;;;;;;;;;;;;;;5057823;28;20011;-82
2022/12/29 08:31:50;;;;;;;;;;;;;;;;;;5054702;28;20371;-80
2022/12/29 08:34:17;;;;;;;;;;;;;;;;;;5053677;28;19960;-81
2022/12/29 08:36:43;;;;;;;;;;;;;;;;;;5053899;28;20011;-81
2022/12/29 08:39:10;;;;;;;;;;;;;;;;;;5054132;28;20435;-82
2022/12/29 08:41:36;;;;;;;;;;;;;;;;;;5053678;28;20031;-82
2022/12/29 08:44:03;;;;;;;;;;;;;;;;;;5052638;28;20019;-82
2022/12/29 08:46:31;;;;;;;;;;;;;;;;;;5052946;28;19971;-81
2022/12/29 08:48:57;;;;;;;;;;;;;;;;;;5053368;28;20387;-81
2022/12/29 08:51:24;;;;;;;;;;;;;;;;;;5054199;28;19929;-82
2022/12/29 08:53:50;;;;;;;;;;;;;;;;;;5065646;28;20024;-82
2022/12/29 08:56:17;;;;;;;;;;;;;;;;;;5076564;28;19959;-82
2022/12/29 08:58:43;;;;;;;;;;;;;;;;;;5075215;28;19931;-82
2022/12/29 09:01:10;;;;;;;;;;;;;;;;;;5074323;28;20014;-82
2022/12/29 09:03:37;;;;;;;;;;;;;;;;;;5080619;28;20027;-81
2022/12/29 09:06:04;;;;;;;;;;;;;;;;;;5057145;28;19928;-82
2022/12/29 09:08:30;;;;;;;;;;;;;;;;;;5054568;28;19928;-82
2022/12/29 09:11:05;;;;;;;;;;;;;;;;;;5067583;28;20003;-81
2022/12/29 09:13:32;;;;;;;;;;;;;;;;;;5077214;28;19931;-81
2022/12/29 09:15:59;;;;;;;;;;;;;;;;;;5080600;28;19988;-81
2022/12/29 09:18:25;;;;;;;;;;;;;;;;;;5082767;28;19932;-82
2022/12/29 09:20:57;;;;;;;;;;;;;;;;;;5083664;28;19944;-83
2022/12/29 09:23:24;;;;;;;;;;;;;;;;;;5083414;28;20395;-82
2022/12/29 09:25:50;;;;;;;;;;;;;;;;;;5088411;28;19993;-81
2022/12/29 09:28:17;;;;;;;;;;;;;;;;;;5078970;28;19924;-81
2022/12/29 09:30:43;;;;;;;;;;;;;;;;;;5061665;28;19964;-81
2022/12/29 09:33:10;;;;;;;;;;;;;;;;;;5061310;28;19931;-82
2022/12/29 09:35:36;;;;;;;;;;;;;;;;;;5060075;28;19924;-82
2022/12/29 09:38:04;;;;;;;;;;;;;;;;;;5060003;28;19991;-81
2022/12/29 09:40:31;;;;;;;;;;;;;;;;;;5064080;28;20035;-81
2022/12/29 09:43:10;;;;;;;;;;;;;;;;;;5081742;28;19978;-82
2022/12/29 09:45:41;;;;;;;;;;;;;;;;;;5077865;28;19960;-81
2022/12/29 09:48:09;;;;;;;;;;;;;;;;;;5064959;28;19932;-81
2022/12/29 09:50:38;;;;;;;;;;;;;;;;;;5060093;28;19932;-83
2022/12/29 09:53:09;;;;;;;;;;;;;;;;;;5063784;28;19947;-81
2022/12/29 09:55:37;;;;;;;;;;;;;;;;;;5064390;28;20015;-80
2022/12/29 09:58:05;;;;;;;;;;;;;;;;;;5073815;28;20011;-80
2022/12/29 10:00:37;;;;;;;;;;;;;;;;;;5083835;28;19934;-80
2022/12/29 10:03:06;;;;;;;;;;;;;;;;;;5066406;28;19925;-81
2022/12/29 10:05:36;;;;;;;;;;;;;;;;;;5075601;28;19964;-80
2022/12/29 10:08:10;;;;;;;;;;;;;;;;;;5080400;28;19983;-80
2022/12/29 10:10:39;;;;;;;;;;;;;;;;;;5082872;28;19967;-80
2022/12/29 10:13:21;;;;;;;;;;;;;;;;;;5082911;28;19971;-81
2022/12/29 10:15:53;;;;;;;;;;;;;;;;;;5069160;28;19932;-80
2022/12/29 10:18:32;;;;;;;;;;;;;;;;;;5083585;28;19975;-81
2022/12/29 10:21:00;;;;;;;;;;;;;;;;;;5082041;28;19946;-81
2022/12/29 10:23:30;;;;;;;;;;;;;;;;;;5069724;28;19936;-81
2022/12/29 10:25:59;;;;;;;;;;;;;;;;;;5059811;28;19925;-82
2022/12/29 10:28:30;;;;;;;;;;;;;;;;;;5059457;28;19960;-81
2022/12/29 10:30:58;;;;;;;;;;;;;;;;;;5059360;28;20011;-81
2022/12/29 10:33:30;;;;;;;;;;;;;;;;;;5058665;28;20391;-82
2022/12/29 10:35:57;;;;;;;;;;;;;;;;;;5060837;28;19924;-82
2022/12/29 10:38:26;;;;;;;;;;;;;;;;;;5060990;28;20008;-82
2022/12/29 10:40:57;;;;;;;;;;;;;;;;;;5060345;28;19987;-83
2022/12/29 10:43:26;;;;;;;;;;;;;;;;;;5059869;28;19964;-81
2022/12/29 10:45:53;;;;;;;;;;;;;;;;;;5058736;28;20019;-79
2022/12/29 10:48:21;;;;;;;;;;;;;;;;;;5078328;28;19963;-80
2022/12/29 10:50:48;;;;;;;;;;;;;;;;;;5079100;28;19924;-80
2022/12/29 10:53:20;;;;;;;;;;;;;;;;;;5078423;28;19924;-79
2022/12/29 10:55:47;;;;;;;;;;;;;;;;;;5063324;28;19968;-82
2022/12/29 11:04:36;;;;;;;;;;;;;;;;;;5074127;28;19924;-82
2022/12/29 11:07:06;;;;;;;;;;;;;;;;;;5077422;28;20019;-82
2022/12/29 11:09:34;;;;;;;;;;;;;;;;;;5076616;28;20567;-80
2022/12/29 11:12:01;;;;;;;;;;;;;;;;;;5076933;28;20426;-81
2022/12/29 11:14:29;;;;;;;;;;;;;;;;;;5076691;28;19974;-81
2022/12/29 11:17:00;;;;;;;;;;;;;;;;;;5076798;28;19935;-81
2022/12/29 11:19:27;;;;;;;;;;;;;;;;;;5075523;28;19964;-81
2022/12/29 11:21:55;;;;;;;;;;;;;;;;;;5077709;28;19970;-81
2022/12/29 11:24:23;;;;;;;;;;;;;;;;;;5076057;28;20011;-82
2022/12/29 11:26:50;;;;;;;;;;;;;;;;;;5075858;28;19925;-81
2022/12/29 11:29:24;;;;;;;;;;;;;;;;;;5076012;28;20019;-81
2022/12/29 11:31:52;;;;;;;;;;;;;;;;;;5076876;28;19974;-81
2022/12/29 11:34:19;;;;;;;;;;;;;;;;;;5082553;28;19947;-82
2022/12/29 11:36:46;;;;;;;;;;;;;;;;;;5090527;28;19925;-82
2022/12/29 11:39:25;;;;;;;;;;;;;;;;;;5074055;28;19964;-81
2022/12/29 11:41:53;;;;;;;;;;;;;;;;;;5061342;28;19960;-83
2022/12/29 11:44:20;;;;;;;;;;;;;;;;;;5061552;28;19950;-82
2022/12/29 11:46:51;;;;;;;;;;;;;;;;;;5056347;28;20441;-85
2022/12/29 11:49:20;;;;;;;;;;;;;;;;;;5057763;28;19928;-78
2022/12/29 11:51:48;;;;;;;;;;;;;;;;;;5058480;28;19992;-86
2022/12/29 11:54:18;;;;;;;;;;;;;;;;;;5056313;28;19955;-79
2022/12/29 11:56:46;;;;;;;;;;;;;;;;;;5056705;28;19984;-85
2022/12/29 11:59:36;;;;;;;;;;;;;;;;;;5057059;28;19970;-85
2022/12/29 12:02:09;;;;;;;;;;;;;;;;;;5069342;28;19925;-83
2022/12/29 12:04:38;;;;;;;;;;;;;;;;;;5069248;28;20011;-83
2022/12/29 12:07:12;;;;;;;;;;;;;;;;;;5058200;28;20032;-84
2022/12/29 12:09:43;;;;;;;;;;;;;;;;;;5078071;28;19924;-84
2022/12/29 12:12:16;;;;;;;;;;;;;;;;;;5083306;28;20321;-85
2022/12/29 12:14:47;;;;;;;;;;;;;;;;;;5086215;28;19954;-87
2022/12/29 12:17:17;;;;;;;;;;;;;;;;;;5087552;28;20023;-86
2022/12/29 12:19:47;;;;;;;;;;;;;;;;;;5087520;28;19925;-86
2022/12/29 12:22:16;;;;;;;;;;;;;;;;;;5095084;28;19931;-85
2022/12/29 12:24:53;;;;;;;;;;;;;;;;;;5084676;28;19932;-85
2022/12/29 12:27:22;;;;;;;;;;;;;;;;;;5061363;28;19951;-86
2022/12/29 12:29:53;;;;;;;;;;;;;;;;;;5059881;28;20439;-85
2022/12/29 12:32:21;;;;;;;;;;;;;;;;;;5060400;28;20457;-85
2022/12/29 12:34:48;;;;;;;;;;;;;;;;;;5059956;28;19932;-84
2022/12/29 12:37:33;;;;;;;;;;;;;;;;;;5059656;28;19968;-85
2022/12/29 12:40:09;;;;;;;;;;;;;;;;;;5049948;28;19980;-84
2022/12/29 12:42:45;;;;;;;;;;;;;;;;;;5058716;28;20093;-84
2022/12/29 12:45:33;;;;;;;;;;;;;;;;;;5057994;28;19991;-83
2022/12/29 12:48:03;;;;;;;;;;;;;;;;;;5057958;28;19968;-83
2022/12/29 12:50:37;;;;;;;;;;;;;;;;;;5057498;28;20572;-84
2022/12/29 12:53:15;;;;;;;;;;;;;;;;;;5065113;28;19925;-85
2022/12/29 12:55:51;;;;;;;;;;;;;;;;;;5068193;28;19929;-84
2022/12/29 12:58:25;;;;;;;;;;;;;;;;;;5074961;28;20248;-84
2022/12/29 13:00:57;;;;;;;;;;;;;;;;;;5060546;28;19955;-83
2022/12/29 13:03:29;;;;;;;;;;;;;;;;;;5060099;28;19967;-82
2022/12/29 13:06:04;;;;;;;;;;;;;;;;;;5060623;28;19976;-84
2022/12/29 13:08:42;;;;;;;;;;;;;;;;;;5079201;28;20329;-84
2022/12/29 13:11:19;;;;;;;;;;;;;;;;;;5079544;28;20417;-83
2022/12/29 13:14:12;;;;;;;;;;;;;;;;;;5063843;28;19985;-84
2022/12/29 13:16:43;;;;;;;;;;;;;;;;;;5046410;28;19928;-84
2022/12/29 13:19:12;;;;;;;;;;;;;;;;;;5060723;28;20383;-85
2022/12/29 13:21:48;;;;;;;;;;;;;;;;;;5064088;28;19956;-85
2022/12/29 13:24:17;;;;;;;;;;;;;;;;;;5061012;28;20435;-82
2022/12/29 13:26:45;;;;;;;;;;;;;;;;;;5060078;28;19925;-83
2022/12/29 13:29:17;;;;;;;;;;;;;;;;;;5060564;28;20415;-84
2022/12/29 13:31:49;;;;;;;;;;;;;;;;;;5059640;28;20012;-86
2022/12/29 13:34:20;;;;;;;;;;;;;;;;;;5059641;28;19924;-84
2022/12/29 13:36:49;;;;;;;;;;;;;;;;;;5062881;28;19963;-85
2022/12/29 13:39:18;;;;;;;;;;;;;;;;;;5075382;28;20272;-84
2022/12/29 13:41:46;;;;;;;;;;;;;;;;;;5079116;28;20335;-85
2022/12/29 13:44:15;;;;;;;;;;;;;;;;;;5078458;28;19971;-84
2022/12/29 13:46:43;;;;;;;;;;;;;;;;;;5077859;28;19971;-84
2022/12/29 13:49:14;;;;;;;;;;;;;;;;;;5075485;28;19972;-83
2022/12/29 13:51:43;;;;;;;;;;;;;;;;;;5073998;28;19963;-84
2022/12/29 13:54:18;;;;;;;;;;;;;;;;;;5076668;28;19931;-85
2022/12/29 13:56:50;;;;;;;;;;;;;;;;;;5071277;28;19925;-83
2022/12/29 13:59:20;;;;;;;;;;;;;;;;;;5060180;28;19931;-84
2022/12/29 14:01:50;;;;;;;;;;;;;;;;;;5074190;28;19925;-83
2022/12/29 14:04:24;;;;;;;;;;;;;;;;;;5057073;28;19932;-85
2022/12/29 14:07:00;;;;;;;;;;;;;;;;;;5056131;28;20028;-83
2022/12/29 14:09:44;;;;;;;;;;;;;;;;;;5056248;28;20004;-85
2022/12/29 14:12:32;;;;;;;;;;;;;;;;;;5062117;28;19931;-83
2022/12/29 14:15:16;;;;;;;;;;;;;;;;;;5068113;28;19928;-84
2022/12/29 14:17:43;;;;;;;;;;;;;;;;;;5073598;28;19931;-85
2022/12/29 14:20:19;;;;;;;;;;;;;;;;;;5078326;28;20008;-86
2022/12/29 14:22:56;;;;;;;;;;;;;;;;;;5053974;28;19925;-85
2022/12/29 14:25:37;;;;;;;;;;;;;;;;;;5056494;28;19925;-84
2022/12/29 14:28:16;;;;;;;;;;;;;;;;;;5056091;28;20390;-86
2022/12/29 14:30:50;;;;;;;;;;;;;;;;;;5058862;28;19924;-86
2022/12/29 14:33:17;;;;;;;;;;;;;;;;;;5073938;28;19924;-84
2022/12/29 14:35:49;;;;;;;;;;;;;;;;;;5068736;28;19929;-85
2022/12/29 14:38:23;;;;;;;;;;;;;;;;;;5060540;28;19948;-84
2022/12/29 14:40:50;;;;;;;;;;;;;;;;;;5054943;28;19925;-85
2022/12/29 14:43:22;;;;;;;;;;;;;;;;;;5070501;28;19968;-85
2022/12/29 14:45:53;;;;;;;;;;;;;;;;;;5057179;28;20016;-85
2022/12/29 14:48:30;;;;;;;;;;;;;;;;;;5060229;28;19974;-85
2022/12/29 14:50:58;;;;;;;;;;;;;;;;;;5058608;28;19924;-85
2022/12/29 14:53:47;;;;;;;;;;;;;;;;;;5064369;28;20020;-83
2022/12/29 14:56:14;;;;;;;;;;;;;;;;;;5058189;28;19988;-84
2022/12/29 14:58:44;;;;;;;;;;;;;;;;;;5060069;28;19964;-84
2022/12/29 15:01:18;;;;;;;;;;;;;;;;;;5072994;28;19925;-84
2022/12/29 15:03:46;;;;;;;;;;;;;;;;;;5072584;28;19986;-85
2022/12/29 15:06:18;;;;;;;;;;;;;;;;;;5063620;28;19924;-85
2022/12/29 15:08:47;;;;;;;;;;;;;;;;;;5010892;28;1843857;-84
2022/12/29 15:11:15;;;;;;;;;;;;;;;;;;5091477;28;19929;-86
2022/12/29 15:13:42;;;;;;;;;;;;;;;;;;5090226;28;19970;-85
2022/12/29 15:16:21;;;;;;;;;;;;;;;;;;5064518;28;19925;-83
2022/12/29 15:18:48;;;;;;;;;;;;;;;;;;5070660;28;19972;-84
2022/12/29 15:21:17;;;;;;;;;;;;;;;;;;5055079;28;19929;-84
2022/12/29 15:23:44;;;;;;;;;;;;;;;;;;5054071;28;20015;-85
2022/12/29 15:26:11;;;;;;;;;;;;;;;;;;5054287;28;19976;-84
2022/12/29 15:28:39;;;;;;;;;;;;;;;;;;5054181;28;19925;-85
2022/12/29 15:31:06;;;;;;;;;;;;;;;;;;5071340;28;19964;-85
2022/12/29 15:33:38;;;;;;;;;;;;;;;;;;5073917;28;19994;-84
2022/12/29 15:36:05;;;;;;;;;;;;;;;;;;5054780;28;20023;-84
2022/12/29 15:38:32;;;;;;;;;;;;;;;;;;5053108;28;19924;-84
2022/12/29 15:41:04;;;;;;;;;;;;;;;;;;5053489;28;20553;-84
2022/12/29 15:43:37;;;;;;;;;;;;;;;;;;5071718;28;19974;-84
2022/12/29 15:46:04;;;;;;;;;;;;;;;;;;5070046;28;19929;-84
2022/12/29 15:48:31;;;;;;;;;;;;;;;;;;5056751;28;19935;-84
2022/12/29 15:50:58;;;;;;;;;;;;;;;;;;5067376;28;19964;-84
2022/12/29 15:53:34;;;;;;;;;;;;;;;;;;5063489;28;19933;-83
2022/12/29 15:56:02;;;;;;;;;;;;;;;;;;5054089;28;19932;-84
2022/12/29 15:58:30;;;;;;;;;;;;;;;;;;5058093;28;19970;-84
2022/12/29 16:00:57;;;;;;;;;;;;;;;;;;5058775;28;19992;-83
2022/12/29 16:03:25;;;;;;;;;;;;;;;;;;5062515;28;19939;-84
2022/12/29 16:05:53;;;;;;;;;;;;;;;;;;5060953;28;20007;-84
2022/12/29 16:08:28;;;;;;;;;;;;;;;;;;5062987;28;20431;-84
2022/12/29 16:10:58;;;;;;;;;;;;;;;;;;5061535;28;19959;-84
2022/12/29 16:13:27;;;;;;;;;;;;;;;;;;5068450;28;20646;-84
2022/12/29 16:15:57;;;;;;;;;;;;;;;;;;5062123;28;19948;-85
2022/12/29 16:18:25;;;;;;;;;;;;;;;;;;5060353;28;21682;-84
2022/12/29 16:20:52;;;;;;;;;;;;;;;;;;5053437;28;20002;-85
2022/12/29 16:23:20;;;;;;;;;;;;;;;;;;5053304;28;19924;-84
2022/12/29 16:25:47;;;;;;;;;;;;;;;;;;5057418;28;19925;-83
2022/12/29 16:28:22;;;;;;;;;;;;;;;;;;5067527;28;19964;-83
2022/12/29 16:30:57;;;;;;;;;;;;;;;;;;5065977;28;19948;-84
2022/12/29 16:33:33;;;;;;;;;;;;;;;;;;5059160;28;19924;-83
2022/12/29 16:36:00;;;;;;;;;;;;;;;;;;5059185;28;19933;-83
2022/12/29 16:38:31;;;;;;;;;;;;;;;;;;5062348;28;20007;-85
2022/12/29 16:40:58;;;;;;;;;;;;;;;;;;5066259;28;19966;-84
2022/12/29 16:43:28;;;;;;;;;;;;;;;;;;5070560;28;20012;-84
2022/12/29 16:46:09;;;;;;;;;;;;;;;;;;5057132;28;19924;-82
2022/12/29 16:48:37;;;;;;;;;;;;;;;;;;5071328;28;20039;-84
2022/12/29 16:51:05;;;;;;;;;;;;;;;;;;5076729;28;19974;-85
2022/12/29 16:53:33;;;;;;;;;;;;;;;;;;5063012;28;19970;-85
2022/12/29 16:56:03;;;;;;;;;;;;;;;;;;5066344;28;20001;-83
2022/12/29 16:58:31;;;;;;;;;;;;;;;;;;5057069;28;20326;-85
2022/12/29 17:00:58;;;;;;;;;;;;;;;;;;5061378;28;19924;-85
2022/12/29 17:03:28;;;;;;;;;;;;;;;;;;5070560;28;20362;-83
2022/12/29 17:05:54;;;;;;;;;;;;;;;;;;5059524;28;19924;-84
2022/12/29 17:08:22;;;;;;;;;;;;;;;;;;5057616;28;19925;-85
2022/12/29 17:13:35;;;;;;;;;;;;;;;;;;5076802;28;20452;-83
2022/12/29 17:16:02;;;;;;;;;;;;;;;;;;5076591;28;19985;-85
2022/12/29 17:18:29;;;;;;;;;;;;;;;;;;5076815;28;20383;-83
2022/12/29 17:20:56;;;;;;;;;;;;;;;;;;5078686;28;19955;-83
2022/12/29 17:23:22;;;;;;;;;;;;;;;;;;5071099;28;20338;-83
2022/12/29 17:25:49;;;;;;;;;;;;;;;;;;5068553;28;20287;-83
2022/12/29 17:28:20;;;;;;;;;;;;;;;;;;5067837;28;19967;-83
2022/12/29 17:30:48;;;;;;;;;;;;;;;;;;5058418;28;19972;-83
2022/12/29 17:33:15;;;;;;;;;;;;;;;;;;5065383;28;20454;-83
2022/12/29 17:35:42;;;;;;;;;;;;;;;;;;5099347;28;20013;-83
2022/12/29 17:38:16;;;;;;;;;;;;;;;;;;5097164;28;19970;-83
2022/12/29 17:40:43;;;;;;;;;;;;;;;;;;5091336;28;19960;-85
2022/12/29 17:43:12;;;;;;;;;;;;;;;;;;5077641;28;19952;-85